sensor_id;sensor_type;location;lat;lon;timestamp;P1;durP1;ratioP1;P2;durP2;ratioP2
3831;SDS011;12460;42.662;23.288;2023-05-07T00:06:03;13.57;;;11.57;;
3831;SDS011;12460;42.662;23.288;2023-05-07T00:21:08;13.10;;;11.50;;
3831;SDS011;12460;42.662;23.288;2023-05-07T00:36:13;15.97;;;13.17;;
3831;SDS011;12460;42.662;23.288;2023-05-07T00:51:18;14.30;;;12.80;;
3831;SDS011;12460;42.662;23.288;2023-05-07T01:06:22;12.57;;;11.27;;
3831;SDS011;12460;42.662;23.288;2023-05-07T01:21:29;10.73;;;9.63;;
3831;SDS011;12460;42.662;23.288;2023-05-07T01:36:40;12.30;;;10.57;;
3831;SDS011;12460;42.662;23.288;2023-05-07T01:51:49;11.10;;;9.97;;
3831;SDS011;12460;42.662;23.288;2023-05-07T02:06:54;12.90;;;10.60;;
3831;SDS011;12460;42.662;23.288;2023-05-07T02:22:00;10.93;;;9.77;;
3831;SDS011;12460;42.662;23.288;2023-05-07T02:37:05;9.30;;;8.40;;
3831;SDS011;12460;42.662;23.288;2023-05-07T02:52:10;9.80;;;8.80;;
3831;SDS011;12460;42.662;23.288;2023-05-07T03:07:16;9.43;;;8.43;;
3831;SDS011;12460;42.662;23.288;2023-05-07T03:22:20;10.70;;;8.83;;
3831;SDS011;12460;42.662;23.288;2023-05-07T03:37:25;10.00;;;9.00;;
3831;SDS011;12460;42.662;23.288;2023-05-07T03:52:30;11.50;;;10.30;;
3831;SDS011;12460;42.662;23.288;2023-05-07T04:07:37;9.60;;;8.63;;
3831;SDS011;12460;42.662;23.288;2023-05-07T04:22:47;9.33;;;8.53;;
3831;SDS011;12460;42.662;23.288;2023-05-07T04:37:52;8.90;;;8.17;;
3831;SDS011;12460;42.662;23.288;2023-05-07T04:52:56;10.83;;;9.80;;
3831;SDS011;12460;42.662;23.288;2023-05-07T05:08:01;11.43;;;10.33;;
3831;SDS011;12460;42.662;23.288;2023-05-07T05:23:07;10.90;;;9.80;;
3831;SDS011;12460;42.662;23.288;2023-05-07T05:38:13;11.50;;;10.50;;
3831;SDS011;12460;42.662;23.288;2023-05-07T05:53:18;10.83;;;9.73;;
3831;SDS011;12460;42.662;23.288;2023-05-07T06:08:22;9.60;;;8.80;;
3831;SDS011;12460;42.662;23.288;2023-05-07T06:23:27;10.13;;;9.20;;
3831;SDS011;12460;42.662;23.288;2023-05-07T06:38:32;10.47;;;9.57;;
3831;SDS011;12460;42.662;23.288;2023-05-07T06:53:37;9.20;;;8.40;;
3831;SDS011;12460;42.662;23.288;2023-05-07T07:08:58;9.67;;;8.87;;
3831;SDS011;12460;42.662;23.288;2023-05-07T07:24:05;10.20;;;9.17;;
3831;SDS011;12460;42.662;23.288;2023-05-07T07:39:10;9.80;;;7.67;;
3831;SDS011;12460;42.662;23.288;2023-05-07T07:54:17;10.23;;;9.33;;
3831;SDS011;12460;42.662;23.288;2023-05-07T08:09:21;10.27;;;9.37;;
3831;SDS011;12460;42.662;23.288;2023-05-07T08:24:28;10.37;;;9.43;;
3831;SDS011;12460;42.662;23.288;2023-05-07T08:39:34;8.70;;;8.00;;
3831;SDS011;12460;42.662;23.288;2023-05-07T08:54:44;9.90;;;8.90;;
3831;SDS011;12460;42.662;23.288;2023-05-07T09:09:50;8.90;;;8.10;;
3831;SDS011;12460;42.662;23.288;2023-05-07T09:24:54;7.83;;;7.23;;
3831;SDS011;12460;42.662;23.288;2023-05-07T09:40:02;9.37;;;8.47;;
3831;SDS011;12460;42.662;23.288;2023-05-07T09:55:07;7.60;;;7.00;;
3831;SDS011;12460;42.662;23.288;2023-05-07T10:10:13;7.20;;;6.60;;
3831;SDS011;12460;42.662;23.288;2023-05-07T10:25:28;6.90;;;6.40;;
3831;SDS011;12460;42.662;23.288;2023-05-07T10:40:41;6.80;;;6.30;;
3831;SDS011;12460;42.662;23.288;2023-05-07T10:55:51;9.20;;;8.30;;
3831;SDS011;12460;42.662;23.288;2023-05-07T11:11:19;9.47;;;8.67;;
3831;SDS011;12460;42.662;23.288;2023-05-07T11:26:41;7.30;;;6.80;;
3831;SDS011;12460;42.662;23.288;2023-05-07T11:41:48;7.40;;;6.80;;
3831;SDS011;12460;42.662;23.288;2023-05-07T11:56:55;6.77;;;6.30;;
3831;SDS011;12460;42.662;23.288;2023-05-07T12:12:03;6.80;;;6.30;;
3831;SDS011;12460;42.662;23.288;2023-05-07T12:27:08;6.57;;;6.10;;
3831;SDS011;12460;42.662;23.288;2023-05-07T12:42:16;6.17;;;5.77;;
3831;SDS011;12460;42.662;23.288;2023-05-07T12:57:29;6.20;;;5.60;;
3831;SDS011;12460;42.662;23.288;2023-05-07T13:12:34;6.67;;;6.17;;
3831;SDS011;12460;42.662;23.288;2023-05-07T13:27:39;6.27;;;5.77;;
3831;SDS011;12460;42.662;23.288;2023-05-07T13:42:44;5.43;;;5.10;;
3831;SDS011;12460;42.662;23.288;2023-05-07T13:57:54;5.97;;;5.57;;
3831;SDS011;12460;42.662;23.288;2023-05-07T14:13:09;5.77;;;5.37;;
3831;SDS011;12460;42.662;23.288;2023-05-07T14:28:14;6.13;;;5.63;;
3831;SDS011;12460;42.662;23.288;2023-05-07T14:43:19;5.87;;;5.47;;
3831;SDS011;12460;42.662;23.288;2023-05-07T14:58:25;6.37;;;5.87;;
3831;SDS011;12460;42.662;23.288;2023-05-07T15:13:30;6.20;;;5.80;;
3831;SDS011;12460;42.662;23.288;2023-05-07T15:28:35;5.80;;;5.40;;
3831;SDS011;12460;42.662;23.288;2023-05-07T15:43:46;6.10;;;5.60;;
3831;SDS011;12460;42.662;23.288;2023-05-07T15:58:53;5.60;;;5.20;;
3831;SDS011;12460;42.662;23.288;2023-05-07T16:13:58;6.23;;;5.73;;
3831;SDS011;12460;42.662;23.288;2023-05-07T16:29:04;7.53;;;6.93;;
3831;SDS011;12460;42.662;23.288;2023-05-07T16:44:09;7.23;;;5.60;;
3831;SDS011;12460;42.662;23.288;2023-05-07T16:59:14;5.77;;;5.37;;
3831;SDS011;12460;42.662;23.288;2023-05-07T17:14:19;6.40;;;5.40;;
3831;SDS011;12460;42.662;23.288;2023-05-07T17:29:23;8.87;;;5.93;;
3831;SDS011;12460;42.662;23.288;2023-05-07T17:44:27;6.80;;;6.20;;
3831;SDS011;12460;42.662;23.288;2023-05-07T17:59:33;6.87;;;6.27;;
3831;SDS011;12460;42.662;23.288;2023-05-07T18:14:37;7.53;;;6.83;;
3831;SDS011;12460;42.662;23.288;2023-05-07T18:29:42;7.70;;;6.90;;
3831;SDS011;12460;42.662;23.288;2023-05-07T18:44:46;9.27;;;8.10;;
3831;SDS011;12460;42.662;23.288;2023-05-07T18:59:52;9.83;;;8.83;;
3831;SDS011;12460;42.662;23.288;2023-05-07T19:14:58;9.80;;;8.80;;
3831;SDS011;12460;42.662;23.288;2023-05-07T19:30:04;8.20;;;7.40;;
3831;SDS011;12460;42.662;23.288;2023-05-07T19:45:13;8.93;;;8.03;;
3831;SDS011;12460;42.662;23.288;2023-05-07T20:00:17;8.93;;;8.00;;
3831;SDS011;12460;42.662;23.288;2023-05-07T20:15:23;10.77;;;7.13;;
3831;SDS011;12460;42.662;23.288;2023-05-07T20:30:29;8.40;;;7.20;;
3831;SDS011;12460;42.662;23.288;2023-05-07T20:45:33;8.57;;;7.77;;
3831;SDS011;12460;42.662;23.288;2023-05-07T21:00:38;8.77;;;7.17;;
3831;SDS011;12460;42.662;23.288;2023-05-07T21:15:43;7.63;;;6.57;;
3831;SDS011;12460;42.662;23.288;2023-05-07T21:30:48;10.10;;;7.50;;
3831;SDS011;12460;42.662;23.288;2023-05-07T21:45:55;8.17;;;7.37;;
3831;SDS011;12460;42.662;23.288;2023-05-07T22:01:00;8.43;;;7.63;;
3831;SDS011;12460;42.662;23.288;2023-05-07T22:16:05;10.90;;;9.80;;
3831;SDS011;12460;42.662;23.288;2023-05-07T22:31:10;11.13;;;9.60;;
3831;SDS011;12460;42.662;23.288;2023-05-07T22:46:14;11.07;;;9.40;;
3831;SDS011;12460;42.662;23.288;2023-05-07T23:01:20;10.87;;;9.40;;
3831;SDS011;12460;42.662;23.288;2023-05-07T23:16:25;10.23;;;8.47;;
3831;SDS011;12460;42.662;23.288;2023-05-07T23:31:31;10.57;;;9.40;;
3831;SDS011;12460;42.662;23.288;2023-05-07T23:46:35;9.77;;;8.87;;
